createdAt,value
2024-04-30T00:01:23.111Z,69.96
2024-04-30T00:03:50.212Z,69.32
2024-04-30T00:06:17.353Z,69.32
2024-04-30T00:08:44.425Z,69.86
2024-04-30T00:11:14.176Z,70.17
2024-04-30T00:13:41.290Z,70.58
2024-04-30T00:16:08.479Z,70.63
2024-04-30T00:18:35.579Z,70.31
2024-04-30T00:21:02.740Z,71.11
2024-04-30T00:23:29.842Z,72.23
2024-04-30T00:25:56.941Z,73.11
2024-04-30T00:28:26.767Z,72.50
2024-04-30T00:30:53.927Z,72.91
2024-04-30T00:33:21.009Z,73.77
2024-04-30T00:35:48.077Z,73.93
2024-04-30T00:38:15.168Z,73.74
2024-04-30T00:40:42.324Z,73.36
2024-04-30T00:43:09.557Z,74.47
2024-04-30T00:45:39.285Z,73.69
2024-04-30T00:48:07.209Z,72.90
2024-04-30T00:50:34.687Z,73.07
2024-04-30T00:53:03.897Z,73.68
2024-04-30T00:55:31.112Z,73.22
2024-04-30T00:57:58.313Z,73.23
2024-04-30T01:00:25.509Z,72.84
2024-04-30T01:02:55.263Z,73.30
2024-04-30T01:05:21.940Z,75.40
2024-04-30T01:07:48.597Z,76.06
2024-04-30T01:10:15.366Z,73.83
2024-04-30T01:12:42.117Z,74.24
2024-04-30T01:15:08.800Z,73.98
2024-04-30T01:17:35.527Z,74.87
2024-04-30T01:20:05.637Z,73.72
2024-04-30T01:22:32.389Z,75.00
2024-04-30T01:25:01.716Z,74.16
2024-04-30T01:27:28.422Z,73.49
2024-04-30T01:29:55.131Z,73.32
2024-04-30T01:32:21.847Z,73.80
2024-04-30T01:34:48.557Z,74.09
2024-04-30T01:37:15.349Z,73.94
2024-04-30T01:39:42.060Z,74.04
2024-04-30T01:42:11.384Z,75.23
2024-04-30T01:44:38.049Z,74.91
2024-04-30T01:47:04.889Z,73.92
2024-04-30T01:49:31.616Z,73.86
2024-04-30T01:51:58.389Z,74.42
2024-04-30T01:54:25.133Z,74.69
2024-04-30T01:56:51.799Z,74.52
2024-04-30T01:59:21.145Z,74.48
2024-04-30T02:01:47.892Z,74.60
2024-04-30T02:04:15.067Z,74.88
2024-04-30T02:06:42.834Z,75.38
2024-04-30T02:09:09.902Z,74.38
2024-04-30T02:11:36.982Z,74.68
2024-04-30T02:14:04.118Z,73.92
2024-04-30T02:16:33.842Z,74.06
2024-04-30T02:19:01.122Z,74.56
2024-04-30T02:21:28.286Z,74.90
2024-04-30T02:23:55.383Z,75.98
2024-04-30T02:26:22.519Z,75.37
2024-04-30T02:28:49.591Z,75.59
2024-04-30T02:31:18.752Z,74.68
2024-04-30T02:33:48.459Z,73.84
2024-04-30T02:36:15.538Z,74.51
2024-04-30T02:38:42.570Z,75.14
2024-04-30T02:41:09.620Z,74.82
2024-04-30T02:43:36.728Z,75.18
2024-04-30T02:46:04.115Z,75.39
2024-04-30T02:48:31.251Z,75.83
2024-04-30T02:51:01.724Z,76.11
2024-04-30T02:53:29.025Z,75.54
2024-04-30T02:55:56.292Z,74.90
2024-04-30T02:58:23.583Z,74.26
2024-04-30T03:00:50.309Z,74.76
2024-04-30T03:03:17.067Z,75.19
2024-04-30T03:05:43.772Z,74.74
2024-04-30T03:08:13.117Z,73.96
2024-04-30T03:10:39.898Z,74.92
2024-04-30T03:13:06.624Z,74.38
2024-04-30T03:15:33.403Z,75.13
2024-04-30T03:18:00.178Z,74.22
2024-04-30T03:20:26.964Z,75.51
2024-04-30T03:22:53.710Z,75.21
2024-04-30T03:25:23.128Z,75.67
2024-04-30T03:27:49.875Z,75.24
2024-04-30T03:30:16.530Z,76.00
2024-04-30T03:32:43.351Z,75.23
2024-04-30T03:35:10.287Z,76.11
2024-04-30T03:37:37.066Z,75.36
2024-04-30T03:40:04.593Z,74.97
2024-04-30T03:42:33.923Z,74.69
2024-04-30T03:45:00.672Z,74.20
2024-04-30T03:47:27.431Z,75.18
2024-04-30T03:49:54.126Z,75.45
2024-04-30T03:52:20.841Z,75.22
2024-04-30T03:54:47.777Z,75.29
2024-04-30T03:57:14.458Z,74.69
2024-04-30T03:59:44.232Z,75.39
2024-04-30T04:02:11.327Z,78.36
2024-04-30T04:04:38.517Z,76.38
2024-04-30T04:07:05.713Z,75.94
2024-04-30T04:09:32.809Z,76.14
2024-04-30T04:11:59.859Z,75.83
2024-04-30T04:14:26.911Z,75.63
2024-04-30T04:16:56.584Z,75.33
2024-04-30T04:19:23.767Z,75.85
2024-04-30T04:21:50.852Z,75.88
2024-04-30T04:24:17.937Z,75.62
2024-04-30T04:26:45.015Z,75.65
2024-04-30T04:29:12.063Z,75.84
2024-04-30T04:31:39.259Z,76.44
2024-04-30T04:34:09.179Z,76.25
2024-04-30T04:36:36.270Z,75.67
2024-04-30T04:39:03.852Z,75.90
2024-04-30T04:41:30.980Z,76.23
2024-04-30T04:43:58.075Z,76.75
2024-04-30T04:46:25.212Z,75.34
2024-04-30T04:48:52.375Z,75.12
2024-04-30T04:51:22.168Z,75.26
2024-04-30T04:53:49.269Z,75.90
2024-04-30T04:56:16.357Z,75.49
2024-04-30T04:58:43.557Z,75.06
2024-04-30T05:01:12.650Z,75.49
2024-04-30T05:03:40.242Z,75.14
2024-04-30T05:06:07.419Z,75.09
2024-04-30T05:08:37.244Z,74.09
2024-04-30T05:11:11.939Z,75.23
2024-04-30T05:13:39.090Z,75.18
2024-04-30T05:16:07.377Z,74.77
2024-04-30T05:18:34.510Z,73.93
2024-04-30T05:21:01.644Z,74.05
2024-04-30T05:23:28.733Z,74.68
2024-04-30T05:25:58.406Z,76.15
2024-04-30T05:28:25.505Z,75.50
2024-04-30T05:30:52.668Z,77.60
2024-04-30T05:33:19.794Z,79.51
2024-04-30T05:35:46.884Z,79.75
2024-04-30T05:38:14.322Z,77.70
2024-04-30T05:40:41.608Z,76.39
2024-04-30T05:43:11.652Z,76.34
2024-04-30T05:45:38.895Z,75.47
2024-04-30T05:48:06.938Z,74.88
2024-04-30T05:50:33.674Z,74.21
2024-04-30T05:53:00.431Z,74.38
2024-04-30T05:55:27.186Z,75.63
2024-04-30T05:57:54.241Z,74.28
2024-04-30T06:00:23.760Z,73.33
2024-04-30T06:02:50.579Z,72.79
2024-04-30T06:05:17.508Z,72.67
2024-04-30T06:07:44.421Z,72.39
2024-04-30T06:10:11.199Z,72.26
2024-04-30T06:12:37.896Z,71.47
2024-04-30T06:15:05.449Z,71.95
2024-04-30T06:17:34.830Z,72.24
2024-04-30T06:20:01.684Z,72.71
2024-04-30T06:22:28.728Z,73.39
2024-04-30T06:24:55.503Z,72.65
2024-04-30T06:27:22.284Z,71.89
2024-04-30T06:29:49.102Z,70.82
2024-04-30T06:32:15.858Z,70.68
2024-04-30T06:34:45.241Z,69.63
2024-04-30T06:37:12.141Z,71.06
2024-04-30T06:39:38.937Z,70.46
2024-04-30T06:42:06.066Z,69.19
2024-04-30T06:44:32.784Z,71.03
2024-04-30T06:46:59.580Z,71.07
2024-04-30T06:49:26.855Z,70.20
2024-04-30T06:51:56.637Z,69.63
2024-04-30T06:54:23.733Z,69.30
2024-04-30T06:56:50.820Z,69.51
2024-04-30T06:59:17.944Z,69.24
2024-04-30T07:01:45.502Z,69.60
2024-04-30T07:04:12.644Z,70.02
2024-04-30T07:06:39.834Z,70.53
2024-04-30T07:09:09.552Z,70.83
2024-04-30T07:11:36.764Z,69.96
2024-04-30T07:14:03.846Z,68.77
2024-04-30T07:16:31.048Z,69.56
2024-04-30T07:18:58.242Z,69.53
2024-04-30T07:21:25.336Z,68.76
2024-04-30T07:23:52.444Z,68.79
2024-04-30T07:26:22.375Z,69.12
2024-04-30T07:28:49.504Z,67.68
2024-04-30T07:31:16.643Z,66.73
2024-04-30T07:33:43.765Z,66.36
2024-04-30T07:36:10.871Z,65.57
2024-04-30T07:38:37.879Z,65.10
2024-04-30T07:41:05.104Z,64.42
2024-04-30T07:43:34.901Z,65.61
2024-04-30T07:46:01.973Z,64.98
2024-04-30T07:48:29.145Z,67.33
2024-04-30T07:50:56.425Z,66.14
2024-04-30T07:53:23.562Z,65.91
2024-04-30T07:55:50.659Z,65.14
2024-04-30T07:58:17.729Z,64.64
2024-04-30T08:00:47.583Z,65.31
2024-04-30T08:03:14.835Z,66.33
2024-04-30T08:05:43.302Z,66.56
2024-04-30T08:08:11.804Z,65.46
2024-04-30T08:10:39.139Z,64.79
2024-04-30T08:13:08.187Z,65.26
2024-04-30T08:15:35.284Z,65.31
2024-04-30T08:18:05.491Z,64.81
2024-04-30T08:20:32.655Z,64.22
2024-04-30T08:22:59.811Z,63.77
2024-04-30T08:25:26.907Z,63.82
2024-04-30T08:27:54.010Z,63.56
2024-04-30T08:30:21.072Z,63.05
2024-04-30T08:32:48.678Z,62.99
2024-04-30T08:35:18.413Z,62.83
2024-04-30T08:37:51.871Z,62.40
2024-04-30T08:40:22.624Z,62.43
2024-04-30T08:42:52.601Z,62.16
2024-04-30T08:45:23.116Z,62.52
2024-04-30T08:47:52.136Z,62.71
2024-04-30T08:50:27.046Z,63.64
2024-04-30T08:52:55.871Z,64.11
2024-04-30T08:55:23.718Z,65.23
2024-04-30T08:57:50.869Z,64.81
2024-04-30T09:00:18.195Z,65.39
2024-04-30T09:02:52.985Z,65.42
2024-04-30T09:05:26.476Z,64.48
2024-04-30T09:07:53.744Z,64.54
2024-04-30T09:10:21.041Z,64.43
2024-04-30T09:12:48.116Z,66.02
2024-04-30T09:15:18.389Z,65.64
2024-04-30T09:17:45.384Z,64.93
2024-04-30T09:20:12.268Z,65.04
2024-04-30T09:22:51.604Z,64.03
2024-04-30T09:25:19.702Z,63.86
2024-04-30T09:27:46.681Z,64.02
2024-04-30T09:30:17.021Z,64.23
2024-04-30T09:32:43.815Z,64.54
2024-04-30T09:35:21.083Z,63.70
2024-04-30T09:37:55.319Z,63.53
2024-04-30T09:40:25.277Z,62.79
2024-04-30T09:42:54.138Z,62.20
2024-04-30T09:45:22.072Z,61.70
2024-04-30T09:47:49.566Z,60.99
2024-04-30T09:50:17.367Z,61.21
2024-04-30T09:52:45.759Z,60.45
2024-04-30T09:55:15.945Z,60.82
2024-04-30T09:57:44.005Z,60.64
2024-04-30T10:00:12.068Z,60.47
2024-04-30T10:02:44.637Z,60.47
2024-04-30T10:05:17.148Z,59.25
2024-04-30T10:07:46.091Z,58.24
2024-04-30T10:10:26.631Z,58.57
2024-04-30T10:12:53.404Z,58.51
2024-04-30T10:15:20.506Z,58.20
2024-04-30T10:17:47.672Z,58.41
2024-04-30T10:20:14.788Z,58.68
2024-04-30T10:22:41.955Z,59.30
2024-04-30T10:25:20.607Z,59.29
2024-04-30T10:27:51.107Z,58.02
2024-04-30T10:30:25.098Z,58.55
2024-04-30T10:32:52.346Z,57.91
2024-04-30T10:35:19.515Z,57.93
2024-04-30T10:37:47.496Z,57.79
2024-04-30T10:40:15.407Z,57.44
2024-04-30T10:42:43.327Z,60.07
2024-04-30T10:45:21.871Z,57.85
2024-04-30T10:47:49.025Z,57.43
2024-04-30T10:50:19.395Z,57.95
2024-04-30T10:52:47.547Z,57.78
2024-04-30T10:55:17.715Z,58.42
2024-04-30T10:57:44.860Z,58.18
2024-04-30T11:00:14.858Z,57.84
2024-04-30T11:02:41.920Z,57.48
2024-04-30T11:05:13.519Z,57.51
2024-04-30T11:07:40.796Z,58.60
2024-04-30T11:10:08.596Z,58.06
2024-04-30T11:12:35.730Z,58.03
2024-04-30T11:15:02.970Z,58.60
2024-04-30T11:17:32.983Z,59.13
2024-04-30T11:20:00.228Z,58.75
2024-04-30T11:22:27.431Z,57.57
2024-04-30T11:24:54.644Z,56.52
2024-04-30T11:27:21.714Z,56.40
2024-04-30T11:29:48.956Z,55.83
2024-04-30T11:32:16.174Z,54.78
2024-04-30T11:34:46.015Z,54.43
2024-04-30T11:37:13.210Z,54.53
2024-04-30T11:39:40.385Z,54.30
2024-04-30T11:44:39.588Z,53.59
2024-04-30T11:47:07.017Z,55.00
2024-04-30T11:49:34.966Z,55.20
2024-04-30T11:52:05.091Z,54.65
2024-04-30T11:54:32.286Z,54.60
2024-04-30T11:56:59.594Z,53.64
2024-04-30T11:59:26.727Z,54.07
2024-04-30T12:01:53.874Z,54.08
2024-04-30T12:04:21.063Z,54.19
2024-04-30T12:06:48.128Z,52.59
2024-04-30T12:09:17.867Z,52.37
2024-04-30T12:11:44.999Z,52.64
2024-04-30T12:16:39.726Z,52.23
2024-04-30T12:19:09.116Z,52.98
2024-04-30T12:21:36.180Z,51.61
2024-04-30T12:24:03.375Z,49.72
2024-04-30T12:26:36.598Z,51.04
2024-04-30T12:29:03.839Z,52.07
2024-04-30T12:31:31.016Z,53.08
2024-04-30T12:33:58.129Z,51.99
2024-04-30T12:36:25.402Z,49.92
2024-04-30T12:38:52.864Z,50.12
2024-04-30T12:41:20.120Z,47.43
2024-04-30T12:43:49.544Z,47.25
2024-04-30T12:46:16.450Z,47.26
2024-04-30T12:48:43.404Z,45.86
2024-04-30T12:51:10.259Z,43.93
2024-04-30T12:53:38.037Z,46.01
2024-04-30T12:56:05.307Z,46.50
2024-04-30T12:58:32.138Z,46.94
2024-04-30T13:01:01.555Z,48.00
2024-04-30T13:03:28.324Z,50.57
2024-04-30T13:05:54.995Z,51.92
2024-04-30T13:08:21.747Z,51.63
2024-04-30T13:11:06.947Z,50.96
2024-04-30T13:13:35.190Z,50.32
2024-04-30T13:16:02.381Z,50.04
2024-04-30T13:18:31.137Z,49.10
2024-04-30T13:20:58.467Z,49.38
2024-04-30T13:23:25.893Z,49.76
2024-04-30T13:25:53.052Z,49.60
2024-04-30T13:28:23.053Z,49.44
2024-04-30T13:30:50.528Z,50.26
2024-04-30T13:33:17.782Z,50.31
2024-04-30T13:35:44.949Z,50.88
2024-04-30T13:38:12.181Z,52.10
2024-04-30T13:40:39.267Z,50.80
2024-04-30T13:43:06.498Z,50.14
2024-04-30T13:45:36.215Z,49.93
2024-04-30T13:48:03.759Z,50.51
2024-04-30T13:50:30.912Z,51.43
2024-04-30T13:52:58.025Z,51.12
2024-04-30T13:55:25.139Z,51.32
2024-04-30T13:57:52.304Z,50.67
2024-04-30T14:00:19.490Z,51.01
2024-04-30T14:02:49.222Z,50.85
2024-04-30T14:05:16.551Z,49.71
2024-04-30T14:07:44.560Z,50.72
2024-04-30T14:10:12.001Z,51.29
2024-04-30T14:12:39.115Z,51.60
2024-04-30T14:15:06.564Z,51.50
2024-04-30T14:17:33.771Z,49.91
2024-04-30T14:20:03.754Z,49.78
2024-04-30T14:22:31.110Z,49.70
2024-04-30T14:24:58.412Z,48.87
2024-04-30T14:27:25.455Z,50.48
2024-04-30T14:29:52.513Z,50.38
2024-04-30T14:32:19.576Z,50.04
2024-04-30T14:34:46.746Z,48.29
2024-04-30T14:37:16.457Z,47.10
2024-04-30T14:39:43.606Z,46.13
2024-04-30T14:42:10.671Z,46.62
2024-04-30T14:44:37.778Z,45.66
2024-04-30T14:47:05.437Z,47.86
2024-04-30T14:49:32.582Z,46.73
2024-04-30T14:51:59.638Z,46.44
2024-04-30T14:54:29.335Z,46.97
2024-04-30T14:56:56.421Z,48.33
2024-04-30T14:59:23.575Z,47.42
2024-04-30T15:01:50.899Z,50.66
2024-04-30T15:04:18.214Z,50.13
2024-04-30T15:06:45.397Z,50.98
2024-04-30T15:09:12.749Z,49.58
2024-04-30T15:11:42.613Z,50.61
2024-04-30T15:14:09.720Z,49.88
2024-04-30T15:16:41.501Z,50.64
2024-04-30T15:19:09.227Z,49.93
2024-04-30T15:21:36.330Z,49.53
2024-04-30T15:24:03.557Z,48.90
2024-04-30T15:26:32.237Z,49.36
2024-04-30T15:29:02.411Z,47.14
2024-04-30T15:31:29.586Z,47.87
2024-04-30T15:33:56.734Z,48.24
2024-04-30T15:36:23.824Z,47.49
2024-04-30T15:38:50.893Z,46.24
2024-04-30T15:41:21.050Z,46.01
2024-04-30T15:43:48.264Z,45.35
2024-04-30T15:46:17.995Z,44.42
2024-04-30T15:48:45.215Z,44.46
2024-04-30T15:51:12.431Z,44.65
2024-04-30T15:53:39.537Z,44.45
2024-04-30T15:56:16.359Z,44.62
2024-04-30T15:58:46.589Z,44.34
2024-04-30T16:01:14.050Z,44.09
2024-04-30T16:03:43.984Z,43.85
2024-04-30T16:06:11.583Z,44.52
2024-04-30T16:08:38.720Z,44.98
2024-04-30T16:11:10.440Z,45.91
2024-04-30T16:13:39.644Z,49.06
2024-04-30T16:16:13.152Z,48.96
2024-04-30T16:18:48.424Z,47.94
2024-04-30T16:21:16.083Z,48.34
2024-04-30T16:23:44.167Z,47.62
2024-04-30T16:26:11.666Z,47.93
2024-04-30T16:28:42.560Z,48.30
2024-04-30T16:31:09.490Z,47.43
2024-04-30T16:33:37.349Z,46.64
2024-04-30T16:36:08.307Z,46.21
2024-04-30T16:38:37.747Z,46.35
2024-04-30T16:41:04.730Z,45.68
2024-04-30T16:43:31.472Z,44.82
2024-04-30T16:45:58.237Z,44.59
2024-04-30T16:48:25.064Z,44.62
2024-04-30T16:50:51.989Z,44.49
2024-04-30T16:53:21.393Z,45.28
2024-04-30T16:55:48.122Z,45.41
2024-04-30T16:58:14.856Z,44.61
2024-04-30T17:00:41.650Z,44.89
2024-04-30T17:03:08.497Z,45.08
2024-04-30T17:05:35.282Z,45.35
2024-04-30T17:08:02.109Z,45.63
2024-04-30T17:10:31.463Z,45.52
2024-04-30T17:12:58.357Z,44.58
2024-04-30T17:15:25.159Z,45.20
2024-04-30T17:17:51.841Z,45.31
2024-04-30T17:20:18.546Z,45.44
2024-04-30T17:22:45.296Z,45.76
2024-04-30T17:25:12.133Z,46.03
2024-04-30T17:27:42.272Z,45.82
2024-04-30T17:30:10.227Z,46.04
2024-04-30T17:32:40.290Z,46.46
2024-04-30T17:35:07.637Z,46.94
2024-04-30T17:37:34.751Z,46.53
2024-04-30T17:40:01.892Z,47.34
2024-04-30T17:42:29.051Z,47.69
2024-04-30T17:44:58.778Z,47.67
2024-04-30T17:47:25.963Z,47.83
2024-04-30T17:49:53.074Z,49.55
2024-04-30T17:52:20.193Z,49.37
2024-04-30T17:54:47.383Z,49.87
2024-04-30T17:57:14.450Z,49.66
2024-04-30T17:59:44.114Z,49.09
2024-04-30T18:02:13.871Z,49.59
2024-04-30T18:04:41.959Z,51.01
2024-04-30T18:07:09.120Z,54.35
2024-04-30T18:09:36.323Z,54.02
2024-04-30T18:12:03.943Z,54.62
2024-04-30T18:14:31.054Z,54.99
2024-04-30T18:16:59.482Z,54.29
2024-04-30T18:19:30.638Z,54.86
2024-04-30T18:21:57.808Z,54.72
2024-04-30T18:24:25.050Z,55.56
2024-04-30T18:26:52.142Z,56.42
2024-04-30T18:29:19.275Z,57.60
2024-04-30T18:31:53.087Z,58.89
2024-04-30T18:34:21.212Z,59.01
2024-04-30T18:36:51.289Z,56.99
2024-04-30T18:39:18.599Z,55.08
2024-04-30T18:41:45.758Z,55.54
2024-04-30T18:44:12.912Z,54.08
2024-04-30T18:46:40.244Z,53.36
2024-04-30T18:49:07.535Z,52.83
2024-04-30T18:51:41.097Z,52.85
2024-04-30T18:54:11.512Z,53.51
2024-04-30T18:56:39.352Z,55.17
2024-04-30T18:59:06.144Z,54.72
2024-04-30T19:01:32.928Z,53.46
2024-04-30T19:03:59.706Z,52.57
2024-04-30T19:06:26.434Z,53.61
2024-04-30T19:08:53.157Z,53.63
2024-04-30T19:11:22.587Z,53.54
2024-04-30T19:13:49.534Z,53.44
2024-04-30T19:16:16.372Z,56.83
2024-04-30T19:18:43.227Z,56.25
2024-04-30T19:21:10.150Z,56.01
2024-04-30T19:23:36.874Z,56.06
2024-04-30T19:26:03.929Z,55.82
2024-04-30T19:28:33.269Z,56.68
2024-04-30T19:30:59.988Z,56.16
2024-04-30T19:33:26.989Z,56.21
2024-04-30T19:35:53.937Z,56.47
2024-04-30T19:38:20.718Z,56.51
2024-04-30T19:40:47.455Z,56.30
2024-04-30T19:43:14.656Z,56.01
2024-04-30T19:45:44.174Z,57.67
2024-04-30T19:48:15.531Z,57.77
2024-04-30T19:50:45.003Z,58.51
2024-04-30T19:53:11.754Z,57.99
2024-04-30T19:55:38.489Z,58.75
2024-04-30T19:58:05.533Z,59.16
2024-04-30T20:00:32.646Z,58.39
2024-04-30T20:03:02.632Z,57.92
2024-04-30T20:05:29.800Z,58.29
2024-04-30T20:07:56.916Z,58.54
2024-04-30T20:10:24.123Z,58.49
2024-04-30T20:12:51.398Z,58.52
2024-04-30T20:15:18.722Z,59.12
2024-04-30T20:17:45.961Z,59.07
2024-04-30T20:20:15.757Z,59.15
2024-04-30T20:22:45.579Z,59.07
2024-04-30T20:25:13.937Z,60.59
2024-04-30T20:27:41.617Z,60.65
2024-04-30T20:30:11.600Z,60.24
2024-04-30T20:32:40.932Z,59.68
2024-04-30T20:35:08.562Z,60.48
2024-04-30T20:37:38.211Z,60.44
2024-04-30T20:40:06.346Z,60.74
2024-04-30T20:42:33.463Z,59.89
2024-04-30T20:45:00.539Z,59.87
2024-04-30T20:47:28.072Z,60.30
2024-04-30T20:49:55.197Z,60.78
2024-04-30T20:52:22.236Z,60.17
2024-04-30T20:54:52.016Z,60.43
2024-04-30T20:57:19.251Z,60.32
2024-04-30T20:59:46.366Z,59.43
2024-04-30T21:02:13.460Z,59.49
2024-04-30T21:04:40.518Z,60.57
2024-04-30T21:07:07.663Z,60.07
2024-04-30T21:09:34.808Z,58.86
2024-04-30T21:12:05.296Z,58.80
2024-04-30T21:14:32.496Z,59.67
2024-04-30T21:17:01.012Z,59.89
2024-04-30T21:19:29.405Z,59.17
2024-04-30T21:21:56.565Z,58.74
2024-04-30T21:24:23.861Z,58.92
2024-04-30T21:26:50.971Z,59.06
2024-04-30T21:29:20.653Z,58.61
2024-04-30T21:31:47.709Z,58.10
2024-04-30T21:34:14.913Z,58.39
2024-04-30T21:36:46.004Z,58.43
2024-04-30T21:39:13.980Z,59.20
2024-04-30T21:41:41.051Z,59.08
2024-04-30T21:44:08.136Z,59.73
2024-04-30T21:46:42.233Z,59.99
2024-04-30T21:49:09.517Z,59.21
2024-04-30T21:51:36.751Z,59.40
2024-04-30T21:54:03.979Z,59.05
2024-04-30T21:56:31.116Z,59.01
2024-04-30T21:58:58.531Z,58.56
2024-04-30T22:01:25.621Z,57.66
2024-04-30T22:03:55.484Z,57.84
2024-04-30T22:06:22.694Z,58.10
2024-04-30T22:08:49.827Z,58.07
2024-04-30T22:11:16.989Z,60.28
2024-04-30T22:13:44.194Z,59.24
2024-04-30T22:16:11.274Z,58.99
2024-04-30T22:18:38.518Z,58.87
2024-04-30T22:21:08.433Z,59.61
2024-04-30T22:23:35.465Z,60.48
2024-04-30T22:26:02.823Z,60.01
2024-04-30T22:28:29.959Z,59.85
2024-04-30T22:30:57.197Z,59.42
2024-04-30T22:33:24.446Z,59.35
2024-04-30T22:35:51.601Z,59.18
2024-04-30T22:38:21.264Z,59.12
2024-04-30T22:40:48.344Z,59.05
2024-04-30T22:43:16.021Z,59.89
2024-04-30T22:45:43.239Z,59.78
2024-04-30T22:48:10.405Z,59.69
2024-04-30T22:50:37.510Z,59.84
2024-04-30T22:53:05.211Z,59.96
2024-04-30T22:55:34.913Z,59.39
2024-04-30T22:58:02.075Z,59.11
2024-04-30T23:00:29.286Z,59.79
2024-04-30T23:02:56.423Z,59.79
2024-04-30T23:05:23.666Z,59.96
2024-04-30T23:07:50.740Z,59.53
2024-04-30T23:10:17.909Z,59.65
2024-04-30T23:12:47.720Z,60.29
2024-04-30T23:15:14.947Z,60.53
2024-04-30T23:17:42.165Z,60.55
2024-04-30T23:20:09.716Z,61.48
2024-04-30T23:22:37.192Z,60.63
2024-04-30T23:25:04.921Z,60.72
2024-04-30T23:27:32.265Z,60.90
2024-04-30T23:30:02.313Z,60.01
2024-04-30T23:32:29.416Z,59.51
2024-04-30T23:34:56.491Z,59.46
2024-04-30T23:37:23.577Z,58.44
2024-04-30T23:39:50.674Z,58.64
2024-04-30T23:42:22.975Z,59.31
2024-04-30T23:44:50.814Z,59.24
2024-04-30T23:47:20.612Z,59.00
2024-04-30T23:49:47.701Z,58.78
2024-04-30T23:52:14.738Z,58.20
2024-04-30T23:54:43.225Z,58.46
2024-04-30T23:57:10.397Z,59.42
2024-04-30T23:59:37.522Z,58.92
